createdAt,value
2023-06-07T04:03:10.089Z,12.49
2023-06-07T04:07:23.981Z,12.55
2023-06-07T04:11:35.769Z,12.55
2023-06-07T04:15:47.610Z,12.63
2023-06-07T04:19:59.530Z,12.73
2023-06-07T04:24:15.053Z,12.83
2023-06-07T04:28:28.845Z,12.88
2023-06-07T04:32:48.316Z,12.84
2023-06-07T04:37:04.997Z,12.91
2023-06-07T04:41:17.727Z,12.87
2023-06-07T04:45:35.157Z,12.92
2023-06-07T04:49:54.302Z,12.97
2023-06-07T04:54:06.993Z,13.09
2023-06-07T04:58:26.386Z,13.17
2023-06-07T05:02:42.471Z,13.13
2023-06-07T05:06:59.782Z,13.16
2023-06-07T05:11:15.934Z,13.56
2023-06-07T05:15:28.455Z,16.66
2023-06-07T05:19:40.126Z,19.28
2023-06-07T05:23:51.881Z,21.16
2023-06-07T05:28:12.991Z,22.62
2023-06-07T05:32:29.462Z,24.06
2023-06-07T05:36:41.746Z,24.75
2023-06-07T05:40:57.741Z,26.29
2023-06-07T05:45:09.612Z,26.09
2023-06-07T05:49:21.261Z,27.00
2023-06-07T05:53:32.964Z,27.06
2023-06-07T05:57:44.618Z,27.52
2023-06-07T06:01:56.226Z,27.98
2023-06-07T06:06:19.556Z,28.29
2023-06-07T06:10:33.155Z,29.06
2023-06-07T06:14:47.235Z,29.64
2023-06-07T06:18:58.780Z,30.25
2023-06-07T06:23:10.470Z,29.78
2023-06-07T06:27:22.143Z,29.78
2023-06-07T06:31:33.937Z,28.03
2023-06-07T06:35:45.578Z,28.02
2023-06-07T06:39:57.140Z,25.81
2023-06-07T06:44:09.594Z,25.64
2023-06-07T06:48:21.477Z,24.61
2023-06-07T06:52:33.111Z,23.91
2023-06-07T06:56:44.697Z,23.99
2023-06-07T07:00:56.248Z,24.19
2023-06-07T07:05:08.355Z,24.54
2023-06-07T07:09:20.625Z,23.46
2023-06-07T07:13:32.204Z,24.20
2023-06-07T07:17:49.424Z,23.52
2023-06-07T07:22:01.098Z,23.88
2023-06-07T07:26:12.678Z,22.98
2023-06-07T07:30:24.319Z,22.72
2023-06-07T07:34:36.027Z,23.47
2023-06-07T07:38:47.652Z,23.82
2023-06-07T07:42:59.502Z,23.44
2023-06-07T07:47:11.836Z,22.94
2023-06-07T07:51:23.403Z,23.26
2023-06-07T07:55:36.161Z,22.68
2023-06-07T07:59:47.805Z,23.47
2023-06-07T08:04:00.365Z,23.32
2023-06-07T08:08:11.989Z,23.16
2023-06-07T08:12:23.530Z,23.19
2023-06-07T08:16:35.295Z,23.04
2023-06-07T08:20:46.945Z,23.13
2023-06-07T08:24:58.527Z,23.05
2023-06-07T08:29:10.096Z,23.40
2023-06-07T08:33:21.655Z,23.67
2023-06-07T08:37:33.353Z,23.36
2023-06-07T08:41:44.927Z,23.27
2023-06-07T08:45:57.222Z,23.11
2023-06-07T08:50:15.156Z,22.89
2023-06-07T08:54:28.839Z,22.87
2023-06-07T08:58:42.075Z,22.69
2023-06-07T09:02:54.206Z,22.82
2023-06-07T09:07:07.508Z,23.09
2023-06-07T09:11:19.515Z,22.82
2023-06-07T09:15:34.200Z,22.16
2023-06-07T09:19:45.984Z,22.62
2023-06-07T09:24:01.026Z,22.77
2023-06-07T09:28:14.691Z,22.98
2023-06-07T09:32:26.348Z,22.83
2023-06-07T09:36:49.777Z,22.80
2023-06-07T09:41:03.569Z,22.91
2023-06-07T09:45:17.077Z,22.95
2023-06-07T09:49:33.255Z,23.13
2023-06-07T09:53:58.588Z,23.37
2023-06-07T09:58:23.825Z,22.94
2023-06-07T10:02:38.872Z,23.30
2023-06-07T10:06:55.784Z,23.60
2023-06-07T10:11:07.800Z,23.50
2023-06-07T10:15:26.925Z,23.09
2023-06-07T10:19:43.943Z,23.03
2023-06-07T10:23:58.702Z,23.60
2023-06-07T10:28:33.364Z,23.84
2023-06-07T10:32:46.205Z,23.67
2023-06-07T10:36:59.856Z,24.13
2023-06-07T10:41:14.832Z,24.15
2023-06-07T10:45:26.987Z,23.88
2023-06-07T10:49:38.736Z,24.24
2023-06-07T10:53:55.874Z,23.85
2023-06-07T10:58:26.451Z,23.83
2023-06-07T11:02:39.008Z,24.27
2023-06-07T11:07:20.084Z,23.97
2023-06-07T11:11:41.234Z,24.27
2023-06-07T11:15:52.936Z,24.88
2023-06-07T11:20:07.070Z,24.69
2023-06-07T11:24:19.816Z,24.20
2023-06-07T11:28:33.182Z,23.57
2023-06-07T11:32:46.137Z,23.61
2023-06-07T11:37:09.397Z,23.89
2023-06-07T11:41:24.633Z,23.99
2023-06-07T11:45:37.140Z,24.64
2023-06-07T11:49:48.718Z,24.78
2023-06-07T11:54:00.937Z,24.39
2023-06-07T11:58:12.579Z,23.97
2023-06-07T12:02:24.706Z,23.62
2023-06-07T12:06:36.996Z,23.42
2023-06-07T12:10:55.877Z,23.41
2023-06-07T12:15:07.986Z,23.85
2023-06-07T12:19:20.243Z,24.36
2023-06-07T12:23:32.872Z,24.67
2023-06-07T12:27:48.383Z,24.88
2023-06-07T12:32:02.132Z,25.15
2023-06-07T12:36:13.759Z,25.24
2023-06-07T12:40:26.018Z,24.10
2023-06-07T12:44:38.310Z,24.01
2023-06-07T12:48:49.951Z,23.97
2023-06-07T12:53:02.265Z,24.37
2023-06-07T12:57:13.907Z,24.86
2023-06-07T13:01:25.699Z,24.78
2023-06-07T13:05:37.456Z,24.67
2023-06-07T13:09:50.005Z,24.72
2023-06-07T13:14:01.657Z,24.53
2023-06-07T13:18:13.978Z,24.00
2023-06-07T13:22:25.893Z,23.97
2023-06-07T13:26:37.449Z,23.97
2023-06-07T13:30:49.038Z,24.19
2023-06-07T13:35:00.614Z,24.04
2023-06-07T13:39:12.410Z,24.03
2023-06-07T13:43:35.386Z,23.67
2023-06-07T13:47:56.157Z,23.92
2023-06-07T13:52:08.329Z,24.23
2023-06-07T13:56:19.938Z,24.76
2023-06-07T14:00:31.988Z,25.13
2023-06-07T14:04:44.263Z,25.75
2023-06-07T14:08:56.329Z,25.57
2023-06-07T14:13:07.962Z,25.18
2023-06-07T14:17:19.615Z,25.27
2023-06-07T14:21:33.867Z,25.54
2023-06-07T14:25:45.430Z,25.02
2023-06-07T14:29:57.056Z,25.62
2023-06-07T14:34:08.645Z,26.20
2023-06-07T14:38:20.399Z,26.00
2023-06-07T14:42:32.491Z,25.67
2023-06-07T14:46:44.060Z,25.14
2023-06-07T14:50:55.814Z,24.79
2023-06-07T14:55:07.922Z,24.67
2023-06-07T14:59:19.633Z,24.82
2023-06-07T15:03:31.277Z,25.29
2023-06-07T15:07:42.923Z,25.51
2023-06-07T15:11:54.514Z,25.67
2023-06-07T15:16:06.156Z,26.27
2023-06-07T15:20:17.769Z,26.11
2023-06-07T15:24:29.337Z,25.58
2023-06-07T15:28:40.968Z,25.96
2023-06-07T15:32:53.122Z,25.51
2023-06-07T15:37:07.182Z,25.01
2023-06-07T15:41:18.800Z,25.04
2023-06-07T15:45:30.433Z,25.14
2023-06-07T15:49:42.097Z,25.53
2023-06-07T15:53:53.715Z,25.76
2023-06-07T15:58:05.290Z,25.80
2023-06-07T16:02:19.376Z,25.71
2023-06-07T16:06:31.202Z,25.84
2023-06-07T16:10:43.205Z,25.96
2023-06-07T16:14:54.871Z,25.73
2023-06-07T16:19:07.347Z,25.64
2023-06-07T16:23:19.731Z,24.72
2023-06-07T16:27:31.886Z,24.57
2023-06-07T16:31:43.628Z,24.78
2023-06-07T16:35:55.277Z,24.85
2023-06-07T16:40:07.594Z,24.96
2023-06-07T16:44:21.899Z,24.93
2023-06-07T16:48:33.461Z,25.27
2023-06-07T16:52:45.074Z,25.40
2023-06-07T16:56:56.668Z,25.47
2023-06-07T17:01:09.798Z,25.57
2023-06-07T17:05:21.402Z,25.65
2023-06-07T17:09:33.130Z,25.43
2023-06-07T17:13:44.999Z,25.24
2023-06-07T17:17:56.672Z,24.96
2023-06-07T17:22:08.335Z,24.70
2023-06-07T17:26:19.928Z,24.79
2023-06-07T17:30:31.681Z,24.50
2023-06-07T17:34:43.413Z,24.59
2023-06-07T17:38:55.975Z,24.60
2023-06-07T17:43:21.756Z,24.55
2023-06-07T17:47:49.658Z,24.40
2023-06-07T17:52:13.465Z,24.27
2023-06-07T17:56:33.698Z,24.24
2023-06-07T18:00:46.453Z,24.08
2023-06-07T18:04:58.216Z,24.03
2023-06-07T18:09:09.912Z,23.95
2023-06-07T18:13:21.551Z,24.01
2023-06-07T18:17:33.175Z,23.78
2023-06-07T18:21:44.737Z,23.53
2023-06-07T18:26:01.035Z,23.27
2023-06-07T18:30:12.724Z,23.12
2023-06-07T18:34:24.407Z,22.89
2023-06-07T18:38:36.368Z,22.83
2023-06-07T18:42:47.912Z,22.55
2023-06-07T18:46:59.539Z,22.39
2023-06-07T18:51:11.565Z,22.32
2023-06-07T18:55:23.185Z,22.24
2023-06-07T18:59:35.255Z,22.11
2023-06-07T19:03:47.670Z,21.93
2023-06-07T19:08:00.017Z,21.82
2023-06-07T19:12:11.791Z,21.57
2023-06-07T19:16:23.434Z,21.49
2023-06-07T19:20:35.020Z,21.29
2023-06-07T19:24:46.763Z,21.18
2023-06-07T19:28:59.176Z,20.91
2023-06-07T19:33:11.485Z,20.78
2023-06-07T19:37:23.424Z,20.61
2023-06-07T19:41:34.990Z,20.62
2023-06-07T19:45:46.546Z,20.62
2023-06-07T19:49:58.533Z,20.65
2023-06-07T19:54:10.415Z,20.61
2023-06-07T19:58:21.998Z,20.54
2023-06-07T20:02:34.608Z,20.51
2023-06-07T20:06:46.294Z,20.38
2023-06-07T20:10:57.859Z,20.29
2023-06-07T20:15:11.253Z,20.15
2023-06-07T20:19:22.971Z,20.11
2023-06-07T20:23:34.589Z,20.00
2023-06-07T20:27:46.201Z,19.81
2023-06-07T20:31:57.831Z,19.70
2023-06-07T20:36:09.690Z,19.52
2023-06-07T20:40:21.485Z,19.41
2023-06-07T20:44:47.784Z,19.26
2023-06-07T20:49:05.919Z,19.15
2023-06-07T20:53:17.588Z,19.08
2023-06-07T20:57:31.030Z,19.05
2023-06-07T21:01:42.619Z,18.97
2023-06-07T21:05:54.196Z,18.86
2023-06-07T21:10:06.648Z,18.71
2023-06-07T21:14:18.598Z,18.56
2023-06-07T21:18:30.418Z,18.45
2023-06-07T21:22:42.031Z,18.42
2023-06-07T21:26:53.619Z,18.36
